Time;durP1;ratioP1;P1;durP2;ratioP2;P2;SDS_P1;SDS_P2;PMS_P1;PMS_P2;Temp;Humidity;BMP_temperature;BMP_pressure;BME280_temperature;BME280_humidity;BME280_pressure;Samples;Min_cycle;Max_cycle;Signal;HPM_P1;HPM_P2
2023/01/17 00:00:19;;;;;;;24.87;13.53;;;;;;;6.38;91.13;93639.97;5131296;27;20450;-82
2023/01/17 00:02:46;;;;;;;44.17;19.57;;;;;;;6.29;91.79;93616.50;5132459;28;20452;-81
2023/01/17 00:10:57;;;;;;;15.87;12.17;;;;;;;5.99;93.75;93635.63;5054406;28;20888;-82
2023/01/17 00:13:24;;;;;;;18.73;11.03;;;;;;;5.86;93.95;93596.81;5013122;28;20611;-82
2023/01/17 00:15:50;;;;;;;22.03;12.70;;;;;;;5.89;94.31;93640.81;5048891;28;20449;-82
2023/01/17 00:18:17;;;;;;;17.80;9.90;;;;;;;5.93;94.39;93631.81;5015398;28;20807;-82
2023/01/17 00:26:22;;;;;;;17.97;11.50;;;;;;;5.94;93.16;93601.38;5047444;28;20449;-81
2023/01/17 01:35:46;;;;;;;23.67;14.70;;;;;;;5.57;97.05;93609.75;5096543;28;20979;-81
2023/01/17 01:38:13;;;;;;;18.00;12.77;;;;;;;5.61;96.76;93621.53;5096684;28;20443;-82
2023/01/17 01:40:47;;;;;;;18.67;12.47;;;;;;;5.74;96.64;93588.28;5096155;28;20443;-82
2023/01/17 01:43:17;;;;;;;12.93;10.03;;;;;;;5.57;97.16;93576.75;5096067;28;20446;-82
2023/01/17 01:45:48;;;;;;;12.90;8.80;;;;;;;5.56;97.53;93559.50;5095901;28;20439;-81
2023/01/17 01:48:33;;;;;;;15.50;11.17;;;;;;;5.73;97.18;93552.81;5095564;28;20439;-81
2023/01/17 01:51:03;;;;;;;20.43;12.60;;;;;;;5.80;96.88;93571.34;5095855;28;20988;-82
2023/01/17 01:53:32;;;;;;;17.37;11.43;;;;;;;5.84;95.83;93565.72;5096077;28;20456;-82
2023/01/17 01:55:59;;;;;;;16.53;12.10;;;;;;;5.81;95.95;93586.00;5096624;28;20467;-82
2023/01/17 01:58:32;;;;;;;17.20;11.87;;;;;;;5.75;96.12;93548.28;5096019;28;20443;-82
2023/01/17 02:00:58;;;;;;;18.77;12.33;;;;;;;5.75;97.27;93568.28;5096872;28;20475;-82
2023/01/17 02:03:31;;;;;;;20.73;11.13;;;;;;;5.87;95.94;93559.41;5096844;28;20858;-82
2023/01/17 02:06:04;;;;;;;16.60;12.00;;;;;;;5.88;95.96;93556.69;5097331;28;20440;-82
2023/01/17 02:08:31;;;;;;;17.00;11.67;;;;;;;5.91;96.04;93553.00;5096957;28;20467;-82
2023/01/17 02:10:58;;;;;;;23.97;14.80;;;;;;;5.93;95.91;93566.72;5096716;28;20440;-81
2023/01/17 02:13:25;;;;;;;22.67;13.53;;;;;;;5.81;96.48;93565.16;5095736;28;20446;-82
2023/01/17 02:16:02;;;;;;;11.87;8.73;;;;;;;5.54;98.37;93556.19;5096467;28;20467;-82
2023/01/17 02:18:49;;;;;;;11.80;7.50;;;;;;;5.28;100.00;93536.81;5095916;28;20435;-82
2023/01/17 02:21:23;;;;;;;11.00;7.63;;;;;;;5.26;100.00;93528.31;5096572;28;20492;-81
2023/01/17 02:24:30;;;;;;;10.80;8.60;;;;;;;5.27;100.00;93524.75;5096199;28;20986;-82
2023/01/17 02:27:03;;;;;;;14.83;9.83;;;;;;;5.35;100.00;93532.72;5095379;28;20924;-81
2023/01/17 02:30:02;;;;;;;13.17;8.93;;;;;;;5.41;100.00;93519.19;5095795;28;20880;-82
2023/01/17 02:32:40;;;;;;;20.90;10.50;;;;;;;5.59;99.79;93546.22;5095524;28;20512;-81
2023/01/17 02:35:15;;;;;;;15.53;9.97;;;;;;;5.67;99.09;93529.91;5095125;28;20483;-84
2023/01/17 02:37:50;;;;;;;14.87;10.00;;;;;;;5.77;99.55;93509.94;5094938;28;20924;-82
2023/01/17 02:40:22;;;;;;;16.33;10.20;;;;;;;5.91;98.42;93526.97;5059168;28;20439;-82
2023/01/17 02:42:54;;;;;;;17.37;11.23;;;;;;;6.03;97.79;93554.53;5095273;28;20436;-82
2023/01/17 02:45:22;;;;;;;18.10;11.33;;;;;;;5.98;96.75;93561.91;5094916;28;20447;-82
2023/01/17 02:47:50;;;;;;;20.93;11.70;;;;;;;5.99;96.21;93547.13;5095017;28;20859;-81
2023/01/17 02:50:20;;;;;;;18.30;12.77;;;;;;;5.98;96.76;93537.66;5095101;28;20443;-82
2023/01/17 02:52:56;;;;;;;14.93;11.80;;;;;;;5.96;97.25;93524.78;5094435;28;20448;-82
2023/01/17 02:55:34;;;;;;;18.37;11.63;;;;;;;6.03;97.04;93541.50;5058594;28;20485;-83
2023/01/17 02:58:20;;;;;;;19.97;13.40;;;;;;;6.02;96.70;93541.63;5094444;28;20447;-82
2023/01/17 03:00:58;;;;;;;15.47;10.70;;;;;;;6.07;96.77;93526.41;5105330;28;20447;-83
2023/01/17 03:03:33;;;;;;;20.63;12.87;;;;;;;6.12;97.07;93519.88;5094791;28;20447;-82
2023/01/17 03:06:10;;;;;;;16.93;11.67;;;;;;;5.83;97.57;93499.00;5094399;28;20447;-83
2023/01/17 03:08:39;;;;;;;15.93;11.50;;;;;;;5.64;99.89;93491.16;5094353;28;20443;-82
2023/01/17 03:11:08;;;;;;;16.70;11.83;;;;;;;5.64;100.00;93508.56;5094457;28;20447;-82
2023/01/17 03:13:35;;;;;;;12.73;9.80;;;;;;;5.60;100.00;93503.63;5058329;28;20527;-82
2023/01/17 03:16:05;;;;;;;13.73;9.80;;;;;;;5.37;100.00;93476.19;5093870;28;20528;-82
2023/01/17 03:18:33;;;;;;;15.03;11.00;;;;;;;5.38;100.00;93492.63;5094154;28;20466;-82
2023/01/17 03:21:00;;;;;;;13.10;10.20;;;;;;;5.59;100.00;93475.97;5093827;28;20447;-82
2023/01/17 03:23:26;;;;;;;14.97;10.43;;;;;;;5.73;100.00;93481.72;5094289;28;20443;-82
2023/01/17 03:25:53;;;;;;;20.20;14.07;;;;;;;5.77;100.00;93493.50;5094113;28;20444;-82
2023/01/17 03:28:20;;;;;;;22.47;12.77;;;;;;;5.81;100.00;93505.31;5093667;28;20439;-82
2023/01/17 03:30:47;;;;;;;19.50;12.07;;;;;;;5.80;100.00;93494.06;5094068;28;20443;-82
2023/01/17 03:33:16;;;;;;;18.00;12.50;;;;;;;5.86;100.00;93509.13;5094334;28;20452;-82
2023/01/17 03:35:46;;;;;;;23.37;11.93;;;;;;;5.85;100.00;93493.66;5094353;28;20532;-83
2023/01/17 03:38:13;;;;;;;19.07;12.00;;;;;;;5.96;100.00;93490.94;5094155;28;20971;-82
2023/01/17 03:40:40;;;;;;;19.13;12.77;;;;;;;5.99;99.70;93511.50;5094063;28;20940;-82
2023/01/17 03:43:07;;;;;;;22.23;14.10;;;;;;;6.06;100.00;93516.97;5094110;28;20500;-82
2023/01/17 03:45:34;;;;;;;22.07;14.73;;;;;;;5.93;100.00;93512.03;5094856;28;20452;-82
2023/01/17 03:48:01;;;;;;;20.30;12.73;;;;;;;5.91;100.00;93540.00;5095182;28;20918;-82
2023/01/17 03:50:28;;;;;;;20.47;14.20;;;;;;;5.78;99.69;93527.22;5094349;28;20899;-82
2023/01/17 03:52:56;;;;;;;24.00;15.23;;;;;;;5.81;100.00;93532.16;5094435;28;20960;-82
2023/01/17 03:55:23;;;;;;;22.00;14.47;;;;;;;5.85;100.00;93519.69;5094301;28;20488;-82
2023/01/17 03:57:50;;;;;;;28.17;15.67;;;;;;;5.85;99.65;93532.69;5094847;28;20455;-82
2023/01/17 04:00:17;;;;;;;27.20;16.30;;;;;;;5.88;100.00;93522.84;5095412;28;20795;-82
2023/01/17 04:02:44;;;;;;;24.10;16.30;;;;;;;5.94;100.00;93525.88;5094716;28;20444;-82
2023/01/17 04:05:10;;;;;;;24.00;16.30;;;;;;;5.99;100.00;93519.31;5094154;28;20439;-82
2023/01/17 04:07:37;;;;;;;20.90;14.80;;;;;;;5.98;99.61;93507.25;5094482;28;20435;-82
2023/01/17 04:10:07;;;;;;;25.77;17.67;;;;;;;5.94;100.00;93516.28;5093838;28;20500;-81
2023/01/17 04:12:36;;;;;;;19.27;13.87;;;;;;;5.90;99.95;93502.72;5094209;28;20501;-82
2023/01/17 04:15:03;;;;;;;25.17;14.43;;;;;;;5.69;100.00;93532.38;5094215;28;20479;-82
2023/01/17 04:17:29;;;;;;;22.93;13.13;;;;;;;5.50;100.00;93528.81;5058555;28;20469;-82
2023/01/17 04:19:56;;;;;;;20.33;14.37;;;;;;;5.29;100.00;93530.66;5094120;28;20443;-82
2023/01/17 04:22:23;;;;;;;19.07;13.23;;;;;;;5.57;100.00;93547.31;5093449;28;20447;-82
2023/01/17 04:24:50;;;;;;;21.10;13.10;;;;;;;5.57;100.00;93529.91;5093425;28;20439;-82
2023/01/17 04:27:18;;;;;;;20.53;14.33;;;;;;;5.50;100.00;93549.63;5093030;28;20455;-82
2023/01/17 04:29:45;;;;;;;21.07;14.07;;;;;;;5.65;100.00;93557.03;5093662;28;20435;-82
2023/01/17 04:32:11;;;;;;;20.63;11.97;;;;;;;5.64;100.00;93521.56;5093243;28;20455;-82
2023/01/17 04:34:38;;;;;;;16.53;10.67;;;;;;;5.56;100.00;93522.25;5092873;28;20570;-82
2023/01/17 04:37:05;;;;;;;19.13;12.07;;;;;;;5.62;100.00;93546.91;5093013;28;20447;-80
2023/01/17 04:39:32;;;;;;;22.27;13.83;;;;;;;5.79;100.00;93528.88;5092843;28;20447;-82
2023/01/17 04:41:58;;;;;;;19.60;13.00;;;;;;;5.87;100.00;93554.22;5096677;28;20492;-82
2023/01/17 04:44:26;;;;;;;20.50;14.33;;;;;;;5.95;100.00;93537.94;5097001;28;20446;-82
2023/01/17 04:46:53;;;;;;;25.03;15.83;;;;;;;5.98;100.00;93546.28;5097203;28;20439;-82
2023/01/17 04:49:20;;;;;;;23.60;15.90;;;;;;;5.98;100.00;93546.28;5078001;28;20496;-82
2023/01/17 04:51:47;;;;;;;24.60;16.60;;;;;;;5.93;100.00;93545.88;5096406;28;20448;-82
2023/01/17 04:54:13;;;;;;;30.53;14.83;;;;;;;5.98;100.00;93546.28;5096128;28;20483;-82
2023/01/17 04:56:40;;;;;;;22.30;13.60;;;;;;;6.01;100.00;93550.41;5096938;28;20436;-82
2023/01/17 04:59:07;;;;;;;23.37;14.70;;;;;;;6.09;100.00;93556.59;5096464;28;20949;-82
2023/01/17 05:01:35;;;;;;;19.40;14.47;;;;;;;6.14;100.00;93575.25;5061057;28;20496;-82
2023/01/17 05:04:02;;;;;;;30.93;16.07;;;;;;;6.22;99.86;93593.59;5096446;28;20450;-82
2023/01/17 05:06:29;;;;;;;24.37;16.47;;;;;;;6.05;100.00;93614.28;5096841;28;20436;-82
2023/01/17 05:08:55;;;;;;;22.40;15.43;;;;;;;5.89;100.00;93591.34;5096577;28;20447;-82
2023/01/17 05:11:22;;;;;;;24.70;14.57;;;;;;;6.05;100.00;93596.03;5096485;28;20431;-82
2023/01/17 05:13:49;;;;;;;22.60;14.80;;;;;;;5.98;99.98;93587.94;5096165;28;20917;-82
2023/01/17 05:16:18;;;;;;;16.47;11.40;;;;;;;5.54;100.00;93587.41;5096109;28;20479;-83
2023/01/17 05:18:46;;;;;;;15.40;11.53;;;;;;;5.50;100.00;93580.84;5096602;28;20444;-82
2023/01/17 05:21:13;;;;;;;22.87;13.37;;;;;;;5.68;100.00;93594.03;5096588;28;20493;-82
2023/01/17 05:23:41;;;;;;;16.80;13.00;;;;;;;5.87;100.00;93591.47;5096731;28;20501;-82
2023/01/17 05:26:08;;;;;;;20.40;14.70;;;;;;;6.00;100.00;93619.06;5097035;28;20477;-82
2023/01/17 05:28:35;;;;;;;19.40;14.03;;;;;;;6.05;100.00;93581.25;5096843;28;20439;-83
2023/01/17 05:31:02;;;;;;;18.13;12.70;;;;;;;6.13;100.00;93588.41;5101557;28;20450;-82
2023/01/17 05:33:29;;;;;;;27.27;16.13;;;;;;;6.19;100.00;93573.03;5099004;28;20925;-82
2023/01/17 05:35:57;;;;;;;21.40;15.13;;;;;;;6.19;99.11;93587.84;5096038;28;21069;-82
2023/01/17 05:38:24;;;;;;;18.03;12.77;;;;;;;6.26;99.42;93590.72;5095769;28;20446;-82
2023/01/17 05:40:51;;;;;;;20.33;13.27;;;;;;;6.26;99.07;93586.34;5096126;28;20444;-82
2023/01/17 05:43:17;;;;;;;24.47;18.67;;;;;;;6.27;98.53;93566.31;5095887;28;20441;-82
2023/01/17 05:45:47;;;;;;;29.00;17.50;;;;;;;6.20;98.42;93585.13;5095928;28;20449;-82
2023/01/17 05:48:14;;;;;;;22.87;14.30;;;;;;;6.16;98.14;93575.09;5066969;28;20456;-82
2023/01/17 05:50:41;;;;;;;16.30;11.70;;;;;;;6.12;98.74;93576.34;5096696;28;20448;-82
2023/01/17 05:53:11;;;;;;;21.57;14.83;;;;;;;6.12;98.58;93563.31;5096167;28;20447;-82
2023/01/17 05:55:38;;;;;;;33.17;20.70;;;;;;;6.09;99.30;93569.63;5097417;28;20478;-82
2023/01/17 05:58:07;;;;;;;42.87;26.93;;;;;;;6.08;99.54;93562.78;5096573;28;20455;-82
2023/01/17 06:00:34;;;;;;;35.00;20.20;;;;;;;6.15;99.54;93529.19;5077235;28;20440;-82
2023/01/17 06:03:01;;;;;;;24.63;16.60;;;;;;;6.01;99.86;93517.38;5095466;28;20444;-82
2023/01/17 06:05:34;;;;;;;21.90;14.80;;;;;;;6.06;100.00;93512.59;5100214;28;20439;-82
2023/01/17 06:08:00;;;;;;;21.80;14.67;;;;;;;6.21;100.00;93503.41;5095881;28;20451;-82
2023/01/17 06:10:29;;;;;;;18.10;13.07;;;;;;;6.24;100.00;93506.69;5095941;28;20452;-82
2023/01/17 06:13:07;;;;;;;18.33;13.93;;;;;;;6.33;100.00;93506.69;5096241;28;20437;-82
2023/01/17 06:15:36;;;;;;;14.00;10.47;;;;;;;6.47;100.00;93518.47;5095998;28;20491;-82
2023/01/17 06:18:06;;;;;;;28.90;19.97;;;;;;;6.60;99.51;93502.53;5095858;28;20933;-82
2023/01/17 06:20:33;;;;;;;34.07;21.83;;;;;;;6.60;98.82;93519.00;5095773;28;20446;-82
2023/01/17 06:23:01;;;;;;;29.97;20.80;;;;;;;6.64;97.81;93514.31;5096355;28;20505;-82
2023/01/17 06:25:29;;;;;;;22.60;15.47;;;;;;;6.62;99.19;93490.19;5060364;28;20522;-82
2023/01/17 06:27:56;;;;;;;29.13;19.47;;;;;;;6.69;99.06;93499.91;5095841;28;20451;-82
2023/01/17 06:30:23;;;;;;;26.93;16.90;;;;;;;6.74;99.03;93496.88;5095501;28;20455;-82
2023/01/17 06:32:52;;;;;;;14.73;11.30;;;;;;;6.83;98.88;93501.25;5095295;28;20987;-82
2023/01/17 06:35:19;;;;;;;14.47;9.87;;;;;;;6.96;98.43;93525.22;5095265;28;20814;-82
2023/01/17 06:37:46;;;;;;;8.87;7.30;;;;;;;7.21;97.87;93531.56;5095166;28;20945;-83
2023/01/17 06:40:13;;;;;;;15.57;9.60;;;;;;;7.40;96.97;93538.50;5096120;28;20485;-82
2023/01/17 06:42:41;;;;;;;9.00;5.63;;;;;;;7.44;95.79;93551.13;5095246;28;20844;-82
2023/01/17 06:45:09;;;;;;;6.00;4.70;;;;;;;7.55;94.90;93557.13;5094842;28;20456;-83
2023/01/17 06:47:38;;;;;;;7.33;5.40;;;;;;;7.67;93.59;93548.94;5059887;28;20440;-84
2023/01/17 06:50:06;;;;;;;7.03;5.03;;;;;;;7.81;92.79;93552.06;5094839;28;20472;-83
2023/01/17 06:52:33;;;;;;;6.27;4.87;;;;;;;7.94;92.92;93545.50;5095049;28;20433;-82
2023/01/17 06:54:59;;;;;;;6.80;4.70;;;;;;;8.07;92.22;93553.78;5096658;28;21036;-83
2023/01/17 06:57:26;;;;;;;5.40;4.90;;;;;;;8.16;92.03;93567.78;5095275;28;20843;-83
2023/01/17 06:59:55;;;;;;;10.37;6.23;;;;;;;8.37;91.97;93589.22;5094958;28;20478;-82
2023/01/17 07:02:21;;;;;;;6.07;5.47;;;;;;;8.50;90.71;93561.91;5094543;28;20506;-82
2023/01/17 07:04:48;;;;;;;6.90;5.40;;;;;;;8.56;90.76;93577.81;5094206;28;20459;-83
2023/01/17 07:07:15;;;;;;;10.80;8.03;;;;;;;8.72;90.17;93594.63;5094387;28;20535;-83
2023/01/17 07:09:42;;;;;;;37.50;18.67;;;;;;;8.77;89.96;93587.16;5094617;28;20982;-83
2023/01/17 07:12:09;;;;;;;16.00;10.40;;;;;;;8.76;89.97;93575.03;5094649;28;20502;-82
2023/01/17 07:14:36;;;;;;;39.43;17.20;;;;;;;8.76;89.37;93588.13;5094875;28;20442;-83
2023/01/17 07:17:04;;;;;;;36.47;18.70;;;;;;;8.82;89.26;93595.34;5094607;28;20490;-83
2023/01/17 07:19:31;;;;;;;11.17;8.63;;;;;;;8.83;89.94;93582.13;5094678;28;20866;-83
2023/01/17 07:21:58;;;;;;;4.90;4.40;;;;;;;8.92;88.77;93588.22;5095037;28;20446;-83
2023/01/17 07:24:25;;;;;;;4.93;4.43;;;;;;;9.00;87.23;93598.78;5059394;28;20447;-82
2023/01/17 07:26:53;;;;;;;5.17;4.67;;;;;;;9.11;87.28;93598.50;5095301;28;20440;-83
2023/01/17 07:29:19;;;;;;;4.70;4.30;;;;;;;9.18;86.33;93601.34;5095059;28;20457;-83
2023/01/17 07:31:48;;;;;;;4.07;3.60;;;;;;;9.28;85.25;93599.47;5094638;28;20495;-83
2023/01/17 07:34:17;;;;;;;5.30;3.63;;;;;;;9.42;85.52;93603.28;5094367;28;20461;-83
2023/01/17 07:36:44;;;;;;;6.87;3.77;;;;;;;9.50;85.98;93572.72;5094374;28;20472;-83
2023/01/17 07:39:11;;;;;;;4.43;3.87;;;;;;;9.77;83.76;93602.31;5094589;28;20445;-84
2023/01/17 07:41:40;;;;;;;5.77;5.13;;;;;;;9.85;84.08;93605.00;5094990;28;20942;-83
2023/01/17 07:44:07;;;;;;;9.67;6.90;;;;;;;9.79;85.48;93618.72;5093860;28;20513;-83
2023/01/17 07:46:34;;;;;;;7.70;6.20;;;;;;;9.47;86.80;93598.41;5074955;28;20937;-82
2023/01/17 07:49:00;;;;;;;8.03;6.00;;;;;;;9.34;85.78;93604.06;5093869;28;20999;-82
2023/01/17 07:51:29;;;;;;;8.53;5.57;;;;;;;9.50;86.04;93596.28;5095018;28;20452;-83
2023/01/17 07:53:56;;;;;;;9.10;6.60;;;;;;;9.56;85.56;93602.75;5094396;28;20475;-83
2023/01/17 07:56:23;;;;;;;11.83;8.80;;;;;;;9.46;85.33;93596.75;5095015;28;20541;-83
2023/01/17 07:58:50;;;;;;;11.30;8.60;;;;;;;9.47;86.03;93590.56;5094119;28;20431;-83
2023/01/17 08:01:17;;;;;;;8.47;6.87;;;;;;;9.41;86.17;93588.56;5075532;28;20438;-83
2023/01/17 08:03:44;;;;;;;8.07;6.67;;;;;;;9.55;85.67;93585.38;5076092;28;20447;-83
2023/01/17 08:06:17;;;;;;;9.87;7.90;;;;;;;9.67;86.06;93591.97;5094485;28;20443;-82
2023/01/17 08:08:45;;;;;;;8.57;7.37;;;;;;;9.77;85.86;93600.53;5094088;28;20504;-82
2023/01/17 08:11:12;;;;;;;9.50;7.10;;;;;;;9.81;85.38;93599.22;5094097;28;20813;-82
2023/01/17 08:13:40;;;;;;;10.73;7.00;;;;;;;9.85;84.94;93602.38;5074916;28;20938;-82
2023/01/17 08:16:09;;;;;;;8.83;7.17;;;;;;;9.84;84.59;93601.56;5076487;28;20840;-83
2023/01/17 08:18:36;;;;;;;20.73;13.40;;;;;;;9.89;85.44;93632.53;5097605;28;20496;-83
2023/01/17 08:21:02;;;;;;;9.60;7.87;;;;;;;9.81;84.89;93620.19;5097407;28;20443;-83
2023/01/17 08:23:30;;;;;;;9.43;6.87;;;;;;;9.77;84.49;93597.91;5098720;28;20492;-83
2023/01/17 08:26:01;;;;;;;8.63;7.23;;;;;;;9.73;84.43;93611.47;5098235;28;20531;-83
2023/01/17 08:28:28;;;;;;;7.30;6.60;;;;;;;9.77;84.58;93604.94;5098117;28;20972;-82
2023/01/17 08:30:55;;;;;;;5.67;5.10;;;;;;;9.74;85.89;93611.31;5098221;28;20534;-82
2023/01/17 08:33:22;;;;;;;10.20;7.30;;;;;;;9.82;84.79;93640.16;5098339;28;20824;-82
2023/01/17 08:35:52;;;;;;;8.43;6.40;;;;;;;9.85;84.53;93658.22;5097978;28;20479;-83
2023/01/17 08:38:19;;;;;;;5.93;5.10;;;;;;;9.80;84.42;93643.94;5097530;28;20963;-83
2023/01/17 08:40:46;;;;;;;6.50;3.83;;;;;;;9.99;82.70;93620.13;5097860;28;20455;-83
2023/01/17 08:43:14;;;;;;;8.30;3.53;;;;;;;10.27;81.94;93625.97;5097664;28;20516;-83
2023/01/17 08:45:42;;;;;;;6.70;5.90;;;;;;;10.38;82.50;93635.34;5099020;28;20448;-84
2023/01/17 08:48:29;;;;;;;7.97;6.10;;;;;;;10.42;80.98;93649.81;5080526;28;20466;-82
2023/01/17 08:51:00;;;;;;;5.80;5.30;;;;;;;10.47;81.66;93644.91;5056564;28;20793;-83
2023/01/17 08:53:27;;;;;;;10.00;6.63;;;;;;;10.43;81.84;93631.28;4989250;28;20453;-83
2023/01/17 08:55:58;;;;;;;7.70;5.87;;;;;;;10.49;82.19;93621.94;5056191;28;20488;-83
2023/01/17 08:58:28;;;;;;;8.90;6.50;;;;;;;10.48;81.57;93623.75;5024027;28;20446;-83
2023/01/17 09:00:55;;;;;;;12.57;6.53;;;;;;;10.54;81.17;93617.88;5057711;28;20456;-83
2023/01/17 09:03:21;;;;;;;16.67;8.60;;;;;;;10.58;81.80;93622.78;5056491;28;20483;-84
2023/01/17 09:05:48;;;;;;;9.87;7.63;;;;;;;10.50;82.36;93632.28;5054798;28;20442;-83
2023/01/17 09:08:15;;;;;;;13.07;8.70;;;;;;;10.45;81.21;93631.94;5060736;28;20435;-84
2023/01/17 09:10:42;;;;;;;11.43;8.90;;;;;;;10.29;82.71;93615.34;5097484;28;20477;-83
2023/01/17 09:13:08;;;;;;;5.93;5.43;;;;;;;10.19;82.58;93615.44;5096426;28;20436;-82
2023/01/17 09:15:37;;;;;;;7.27;6.47;;;;;;;10.41;82.86;93633.25;5097130;28;20448;-83
2023/01/17 09:18:03;;;;;;;10.43;7.83;;;;;;;10.53;82.01;93639.00;5077545;28;20455;-83
2023/01/17 09:20:30;;;;;;;7.17;6.30;;;;;;;10.51;82.25;93610.31;5096155;28;20439;-83
2023/01/17 09:22:57;;;;;;;11.93;8.27;;;;;;;10.50;82.01;93621.78;5096329;28;20949;-83
2023/01/17 09:25:24;;;;;;;15.57;11.47;;;;;;;10.53;82.61;93634.59;5096490;28;20443;-82
2023/01/17 09:27:50;;;;;;;23.07;12.07;;;;;;;10.57;82.46;93613.28;5095854;28;20488;-83
2023/01/17 09:30:18;;;;;;;16.03;10.67;;;;;;;10.58;81.86;93604.41;5096476;28;20814;-83
2023/01/17 09:32:52;;;;;;;16.77;12.70;;;;;;;10.66;81.66;93605.25;5095847;28;20452;-83
2023/01/17 09:35:19;;;;;;;10.93;9.03;;;;;;;10.78;81.76;93621.50;5095776;28;20769;-83
2023/01/17 09:37:49;;;;;;;9.37;7.27;;;;;;;10.82;80.85;93622.81;5096164;28;20487;-83
2023/01/17 09:40:20;;;;;;;14.70;8.07;;;;;;;10.84;78.96;93612.97;5096236;28;20439;-83
2023/01/17 09:42:51;;;;;;;4.13;3.60;;;;;;;11.03;77.33;93596.91;5096186;28;20531;-83
2023/01/17 09:45:19;;;;;;;4.87;4.07;;;;;;;11.12;77.54;93585.41;5096306;28;20453;-83
2023/01/17 09:47:49;;;;;;;13.13;9.10;;;;;;;11.29;76.39;93590.66;5096345;28;20448;-84
2023/01/17 09:50:27;;;;;;;10.63;7.00;;;;;;;11.43;75.76;93561.09;5095793;28;20448;-83
2023/01/17 09:53:00;;;;;;;7.67;5.07;;;;;;;11.50;75.35;93564.66;5095705;28;20450;-83
2023/01/17 09:55:32;;;;;;;8.23;7.50;;;;;;;11.54;75.03;93584.34;5077271;28;20480;-83
2023/01/17 09:58:03;;;;;;;15.93;7.57;;;;;;;11.70;76.42;93594.03;5095282;28;20480;-83
2023/01/17 10:00:42;;;;;;;10.47;7.43;;;;;;;11.74;76.55;93590.88;5095527;28;20440;-84
2023/01/17 10:03:40;;;;;;;18.40;9.67;;;;;;;11.78;76.47;93602.72;5095712;28;20451;-83
2023/01/17 10:06:28;;;;;;;31.03;13.30;;;;;;;11.78;77.11;93618.50;5013023;28;20446;-82
2023/01/17 10:09:30;;;;;;;16.70;10.17;;;;;;;11.71;75.95;93599.09;5012997;28;21000;-83
2023/01/17 10:12:17;;;;;;;21.77;13.30;;;;;;;11.67;75.91;93603.06;4879062;29;20454;-83
2023/01/17 10:15:16;;;;;;;21.90;14.40;;;;;;;11.64;75.77;93592.91;4879323;29;20458;-84
2023/01/17 10:17:53;;;;;;;22.77;13.47;;;;;;;11.60;76.11;93586.34;4823699;29;20491;-84
2023/01/17 10:20:43;;;;;;;14.93;9.40;;;;;;;11.69;75.09;93597.63;4824364;29;20444;-83
2023/01/17 10:23:32;;;;;;;21.07;10.67;;;;;;;11.75;75.17;93595.16;4824108;29;20461;-83
2023/01/17 10:26:02;;;;;;;10.17;5.07;;;;;;;11.76;74.21;93598.59;4824128;29;20519;-82
2023/01/17 10:28:36;;;;;;;3.13;2.90;;;;;;;11.95;72.21;93587.72;4824069;29;20456;-82
2023/01/17 10:31:07;;;;;;;3.83;2.83;;;;;;;12.16;71.23;93584.53;4824064;29;20513;-82
2023/01/17 10:33:41;;;;;;;4.93;3.43;;;;;;;12.29;70.48;93583.97;4808847;29;20458;-82
2023/01/17 10:36:15;;;;;;;3.77;2.90;;;;;;;12.32;70.40;93597.59;4824129;29;20506;-83
2023/01/17 10:38:47;;;;;;;5.47;3.93;;;;;;;12.47;69.96;93592.41;4823281;29;20859;-83
2023/01/17 10:41:19;;;;;;;5.53;2.43;;;;;;;12.51;70.13;93585.81;4823840;29;20449;-83
2023/01/17 10:43:58;;;;;;;4.97;2.40;;;;;;;12.55;70.04;93613.41;4880877;29;20855;-83
2023/01/17 10:46:28;;;;;;;11.13;3.00;;;;;;;12.75;68.60;93610.34;4897610;29;20542;-82
2023/01/17 10:48:55;;;;;;;2.53;2.33;;;;;;;12.72;68.84;93622.00;4959350;28;20535;-83
2023/01/17 10:51:50;;;;;;;5.40;3.50;;;;;;;12.73;69.32;93607.06;5032622;28;20502;-82
2023/01/17 10:54:34;;;;;;;17.63;5.80;;;;;;;12.75;69.15;93615.59;5052056;28;20486;-82
2023/01/17 10:57:01;;;;;;;2.80;2.60;;;;;;;12.78;69.24;93600.28;5094773;28;20492;-82
2023/01/17 10:59:31;;;;;;;10.50;5.40;;;;;;;12.81;68.57;93593.84;5094673;28;20446;-82
2023/01/17 11:01:57;;;;;;;4.83;2.23;;;;;;;12.82;68.15;93606.84;5094854;28;20451;-83
2023/01/17 11:04:34;;;;;;;4.87;3.30;;;;;;;12.86;68.10;93605.47;5094889;28;20957;-82
2023/01/17 11:07:14;;;;;;;2.07;1.97;;;;;;;12.87;68.73;93595.78;5060165;28;20954;-83
2023/01/17 11:09:43;;;;;;;3.00;2.70;;;;;;;12.87;67.94;93598.41;5098305;28;20448;-82
2023/01/17 11:12:19;;;;;;;3.83;1.90;;;;;;;13.04;67.45;93586.75;5095165;28;20444;-82
2023/01/17 11:14:57;;;;;;;2.30;2.10;;;;;;;13.06;67.06;93565.53;5074823;28;20492;-82
2023/01/17 11:17:26;;;;;;;4.23;2.20;;;;;;;13.12;67.12;93586.69;5058300;28;20578;-82
2023/01/17 11:19:54;;;;;;;3.57;2.90;;;;;;;12.99;67.00;93579.38;5093944;28;20479;-82
2023/01/17 11:22:23;;;;;;;3.63;2.30;;;;;;;13.02;66.96;93580.84;5094298;28;20450;-82
2023/01/17 11:24:53;;;;;;;2.93;2.60;;;;;;;13.07;67.32;93578.50;5094786;28;20447;-82
2023/01/17 11:27:25;;;;;;;3.90;2.63;;;;;;;13.08;67.41;93556.44;5094935;28;20445;-82
2023/01/17 11:30:04;;;;;;;8.23;4.53;;;;;;;13.05;67.27;93548.09;5095082;28;20451;-82
2023/01/17 11:32:33;;;;;;;4.30;3.33;;;;;;;13.03;67.10;93551.72;5095257;28;20467;-83
2023/01/17 11:35:19;;;;;;;4.13;3.77;;;;;;;13.05;67.56;93543.63;5094900;28;20441;-83
2023/01/17 11:38:04;;;;;;;2.50;2.10;;;;;;;13.13;66.17;93537.47;5094985;28;20493;-83
2023/01/17 11:40:33;;;;;;;3.50;1.90;;;;;;;13.24;66.93;93548.41;5094959;28;20472;-82
2023/01/17 11:43:03;;;;;;;1.77;1.67;;;;;;;13.32;66.55;93551.00;5094361;28;20449;-82
2023/01/17 11:45:31;;;;;;;3.43;3.13;;;;;;;13.31;66.10;93561.72;5094128;28;20439;-82
2023/01/17 11:48:11;;;;;;;2.57;2.37;;;;;;;13.31;65.70;93548.53;5094146;28;20510;-83
2023/01/17 11:50:39;;;;;;;1.97;1.77;;;;;;;13.46;65.00;93532.72;5094001;28;20485;-82
2023/01/17 11:53:16;;;;;;;2.00;1.80;;;;;;;13.51;65.08;93528.53;5094619;28;20447;-82
2023/01/17 11:55:57;;;;;;;2.80;2.13;;;;;;;13.44;65.02;93530.28;5094192;28;20477;-83
2023/01/17 11:58:24;;;;;;;2.90;2.20;;;;;;;13.42;64.92;93534.09;5094702;28;20574;-83
2023/01/17 12:00:59;;;;;;;2.10;1.90;;;;;;;13.45;64.50;93513.47;5093558;28;20449;-82
2023/01/17 12:03:45;;;;;;;2.83;2.53;;;;;;;13.48;64.40;93517.56;5058265;28;20496;-84
2023/01/17 12:06:18;;;;;;;2.30;2.20;;;;;;;13.54;64.83;93512.38;5093649;28;20458;-83
2023/01/17 12:09:01;;;;;;;2.70;2.00;;;;;;;13.58;63.71;93511.00;5094736;28;20443;-83
2023/01/17 12:11:38;;;;;;;2.00;1.67;;;;;;;13.57;63.60;93498.81;5075646;28;20446;-83
2023/01/17 12:14:34;;;;;;;3.60;2.20;;;;;;;13.61;64.74;93502.75;5096585;28;20485;-81
2023/01/17 12:17:12;;;;;;;2.67;2.47;;;;;;;13.59;63.90;93502.13;5093691;28;20736;-82
2023/01/17 12:19:59;;;;;;;2.30;2.10;;;;;;;13.66;64.27;93488.19;5076017;28;20977;-82
2023/01/17 12:22:41;;;;;;;3.07;2.80;;;;;;;13.73;64.70;93474.09;5093518;28;20439;-82
2023/01/17 12:25:24;;;;;;;3.00;2.23;;;;;;;13.68;63.85;93473.84;5093570;28;20865;-82
2023/01/17 12:28:03;;;;;;;5.70;4.43;;;;;;;13.73;63.88;93473.28;5093353;28;20444;-81
2023/01/17 12:30:53;;;;;;;8.30;4.40;;;;;;;13.67;62.94;93468.75;5074538;28;20432;-81
2023/01/17 12:33:25;;;;;;;7.20;2.80;;;;;;;13.75;63.85;93471.28;5093458;28;20441;-82
2023/01/17 12:35:55;;;;;;;2.47;1.77;;;;;;;13.73;63.04;93470.66;5093124;28;20465;-82
2023/01/17 12:38:30;;;;;;;5.33;2.03;;;;;;;13.75;63.78;93461.56;5074654;28;20489;-82
2023/01/17 12:41:04;;;;;;;2.53;2.17;;;;;;;13.80;63.10;93447.81;5058921;28;20938;-82
2023/01/17 12:43:35;;;;;;;3.07;2.27;;;;;;;13.81;63.68;93460.00;5092999;28;20817;-82
2023/01/17 12:46:08;;;;;;;3.27;2.30;;;;;;;13.77;63.73;93462.19;5092999;28;20459;-82
2023/01/17 12:48:38;;;;;;;2.00;1.80;;;;;;;13.76;63.83;93434.19;5093125;28;20456;-81
2023/01/17 12:51:09;;;;;;;2.23;2.03;;;;;;;13.78;63.42;93450.63;5092851;28;20803;-82
2023/01/17 12:53:43;;;;;;;2.90;2.40;;;;;;;13.82;63.55;93448.44;5093168;28;20534;-83
2023/01/17 12:56:18;;;;;;;2.83;1.70;;;;;;;13.84;62.17;93454.34;5092852;28;20441;-82
2023/01/17 12:58:49;;;;;;;3.33;2.37;;;;;;;13.89;61.88;93465.19;5093355;28;20817;-82
2023/01/17 13:01:23;;;;;;;1.80;1.70;;;;;;;13.93;61.36;93448.78;5093603;28;20451;-82
2023/01/17 13:04:02;;;;;;;3.20;2.33;;;;;;;13.98;61.62;93458.78;5077803;28;20943;-82